Etusivu
METAR-TAF:

METAR-TAF

Lentoasemat :

Victoria Harbour, Brittiläinen Kolumbia, Kanada

Leveyspiiri: 48-25N, Pituuspiiri: 123-20W, korkeus merenpinnasta: 5 m

Tämänhetkinen sää

Tämä raportti tehtiin 9 tuntia ja 25 minuuttia sitten, kello 02.00 UTC
Tuuli 12 kn lännestä
Lämpötila 13°C
Kosteus 38%
Ilmanpaine 1015 hPa
Näkyvyys: 24.1 km
Hajanaisia pilviä 21000 ft:n korkeudessa

METAR: CYWH 070200Z 26012KT 15SM SCT210 13/M01 A2998 RMK CI3 LAST STFD OBS/NEXT 071400Z SLP153

Aika: 04:25 (11:25 UTC)

Sääennuste

Tämä raportti tehtiin 14 tuntia ja 47 minuuttia sitten, kello 20.38 UTC
Ennuste voimassa 06. päivästä klo 21 UTC - 07. päivään klo 02 UTC
Tuuli 5 kn lännestä/lounaasta
Näkyvyys: 10 km
Muutamia pilviä 3000 ft:n korkeudessa
Hajanaisia pilviä 22000 ft:n korkeudessa

TAF: CYWH 062038Z 0621/0702 24005KT P6SM FEW030 SCT220 RMK NXT FCST WILL BE ISSUED AT 071515Z

Säähavainnot ja -ennusteet yli 4000 lentoasemalta (METAR- ja TAF-raportit).

Käytössä olevat sääasemat on merkitty karttaan keltaisilla ja punaisilla pisteillä.

Aseta hiiri pisteen päälle nähdäksesi sääaseman nimen.

Klikkaa sitten nähdäksesi säähavainnot ja -ennusteet.

Kartan vaihtaminen: klikkaa mustalla rastilla varustettuja vihreitä pisteitä, niin voit zoomata sisään; viivalla varustettua vihreää pistettä, niin voit zoomata ulos tai vihreitä nuolia, niin pääset viereisille kartoille.


METAR-TAF: